Malpensa International Airport LIMC

Flugplatz Daten

Name: Malpensa International Airport

Ident: LIMC

Lat: 45,63059998

Long: 8,728110313

Platzhöhe: 768 ft

IataCode: MXP

City: Milan

Homepage: http://www.sea-aeroportimilano.it/en/malpensa/index.phtml

Metar

2021/12/03 23:20
LIMC 032320Z 01005KT CAVOK M01/M05 Q1015 NOSIG

Taf

2021/12/03 18:00
TAF LIMC 031700Z 0318/0424 VRB05KT CAVOK
BECMG 0421/0423 0500 BCFG BKN004
Gewünschte Webcam nicht vorhanden? Dann fügen Sie eine hinzu. Sie wird dann so schnell wie möglich freigeschaltet
Url: Title: